Terminal Aerodrome Forecast
Issued by NWS Melbourne, FL

Home | Current Version | Previous Version | Text Only | Print | Product List | Glossary On
Versions: 1 2 3 4 5 6 7 8 9 10 11 12 13 14
000
FTUS42 KMLB 231508 AAA
TAFDAB
TAF AMD
KDAB 231508Z 2315/2412 03012KT P6SM BKN020 BKN040
     FM231700 05014G22KT P6SM SCT035
     FM240000 05012KT P6SM SCT060 BKN120
     FM240600 06006KT P6SM SCT030 BKN060=

USA.gov is the U.S. government's official web portal to all federal, state and local government web resources and services.